createdAt,value
2022-09-15T00:00:16.569Z,100.00
2022-09-15T00:02:24.763Z,100.00
2022-09-15T00:04:32.689Z,100.00
2022-09-15T00:06:40.460Z,100.00
2022-09-15T00:08:50.824Z,100.00
2022-09-15T00:11:01.395Z,100.00
2022-09-15T00:13:09.145Z,100.00
2022-09-15T00:15:18.157Z,100.00
2022-09-15T00:17:25.974Z,100.00
2022-09-15T00:19:33.769Z,100.00
2022-09-15T00:21:44.044Z,100.00
2022-09-15T00:23:55.132Z,100.00
2022-09-15T00:26:03.357Z,100.00
2022-09-15T00:28:11.467Z,100.00
2022-09-15T00:30:21.540Z,100.00
2022-09-15T00:32:29.619Z,100.00
2022-09-15T00:34:37.394Z,100.00
2022-09-15T00:36:45.167Z,100.00
2022-09-15T00:38:56.242Z,100.00
2022-09-15T00:41:04.723Z,100.00
2022-09-15T00:43:15.488Z,100.00
2022-09-15T00:45:25.416Z,100.00
2022-09-15T00:47:36.850Z,100.00
2022-09-15T00:49:47.859Z,100.00
2022-09-15T00:52:07.055Z,100.00
2022-09-15T00:54:22.294Z,100.00
2022-09-15T00:56:33.624Z,100.00
2022-09-15T00:58:48.386Z,100.00
2022-09-15T01:01:01.376Z,100.00
2022-09-15T01:03:09.312Z,100.00
2022-09-15T01:05:23.952Z,100.00
2022-09-15T01:07:37.461Z,100.00
2022-09-15T01:09:55.486Z,100.00
2022-09-15T01:12:05.438Z,100.00
2022-09-15T01:14:13.922Z,100.00
2022-09-15T01:16:27.175Z,100.00
2022-09-15T01:18:45.122Z,100.00
2022-09-15T01:21:06.970Z,100.00
2022-09-15T01:23:58.763Z,100.00
2022-09-15T01:26:39.404Z,100.00
2022-09-15T01:29:11.729Z,100.00
2022-09-15T01:31:27.656Z,100.00
2022-09-15T01:33:39.167Z,100.00
2022-09-15T01:36:04.299Z,100.00
2022-09-15T01:38:18.952Z,100.00
2022-09-15T01:40:29.836Z,100.00
2022-09-15T01:42:39.846Z,100.00
2022-09-15T01:44:51.090Z,100.00
2022-09-15T01:47:05.200Z,100.00
2022-09-15T01:49:15.733Z,100.00
2022-09-15T01:51:25.809Z,100.00
2022-09-15T01:53:39.643Z,100.00
2022-09-15T01:55:55.603Z,100.00
2022-09-15T01:58:03.506Z,100.00
2022-09-15T02:00:14.466Z,100.00
2022-09-15T02:02:32.008Z,100.00
2022-09-15T02:04:47.166Z,100.00
2022-09-15T02:07:02.551Z,100.00
2022-09-15T02:09:16.005Z,100.00
2022-09-15T02:11:28.266Z,100.00
2022-09-15T02:13:48.843Z,100.00
2022-09-15T02:16:00.936Z,100.00
2022-09-15T02:18:15.247Z,100.00
2022-09-15T02:20:31.832Z,100.00
2022-09-15T02:22:43.248Z,100.00
2022-09-15T02:24:57.112Z,100.00
2022-09-15T02:27:07.421Z,100.00
2022-09-15T02:29:19.727Z,100.00
2022-09-15T02:31:29.664Z,100.00
2022-09-15T02:33:46.966Z,100.00
2022-09-15T02:35:57.968Z,100.00
2022-09-15T02:38:10.011Z,100.00
2022-09-15T02:40:17.855Z,100.00
2022-09-15T02:42:27.445Z,100.00
2022-09-15T02:44:35.368Z,100.00
2022-09-15T02:46:43.164Z,100.00
2022-09-15T02:48:54.037Z,100.00
2022-09-15T02:51:01.807Z,100.00
2022-09-15T02:53:11.131Z,100.00
2022-09-15T02:55:19.278Z,100.00
2022-09-15T02:57:26.977Z,100.00
2022-09-15T02:59:54.703Z,100.00
2022-09-15T03:02:05.718Z,100.00
2022-09-15T03:04:16.179Z,100.00
2022-09-15T03:06:24.459Z,100.00
2022-09-15T03:08:32.159Z,100.00
2022-09-15T03:10:39.860Z,100.00
2022-09-15T03:12:49.700Z,100.00
2022-09-15T03:15:01.236Z,100.00
2022-09-15T03:17:09.111Z,100.00
2022-09-15T03:19:20.974Z,100.00
2022-09-15T03:21:30.212Z,100.00
2022-09-15T03:23:38.301Z,100.00
2022-09-15T03:25:48.422Z,100.00
2022-09-15T03:27:56.273Z,100.00
2022-09-15T03:30:04.402Z,100.00
2022-09-15T03:32:16.849Z,100.00
2022-09-15T03:34:27.181Z,100.00
2022-09-15T03:36:34.973Z,100.00
2022-09-15T03:38:42.996Z,100.00
2022-09-15T03:41:01.684Z,100.00
2022-09-15T03:43:09.648Z,100.00
2022-09-15T03:45:20.107Z,100.00
2022-09-15T03:47:27.805Z,100.00
2022-09-15T03:49:38.952Z,100.00
2022-09-15T03:51:47.974Z,100.00
2022-09-15T03:53:56.206Z,100.00
2022-09-15T03:56:16.750Z,100.00
2022-09-15T03:58:30.523Z,100.00
2022-09-15T04:00:39.048Z,100.00
2022-09-15T04:02:47.620Z,100.00
2022-09-15T04:05:05.559Z,100.00
2022-09-15T04:07:13.722Z,100.00
2022-09-15T04:09:22.136Z,100.00
2022-09-15T04:11:29.959Z,100.00
2022-09-15T04:13:37.776Z,100.00
2022-09-15T04:15:45.512Z,100.00
2022-09-15T04:17:53.694Z,100.00
2022-09-15T04:20:04.443Z,100.00
2022-09-15T04:22:17.819Z,100.00
2022-09-15T04:24:26.144Z,100.00
2022-09-15T04:26:35.747Z,100.00
2022-09-15T04:28:43.617Z,100.00
2022-09-15T04:30:51.377Z,100.00
2022-09-15T04:33:00.742Z,100.00
2022-09-15T04:35:12.881Z,100.00
2022-09-15T04:37:21.046Z,100.00
2022-09-15T04:39:29.162Z,100.00
2022-09-15T04:41:36.946Z,100.00
2022-09-15T04:43:45.661Z,100.00
2022-09-15T04:45:56.786Z,100.00
2022-09-15T04:48:08.034Z,100.00
2022-09-15T04:50:18.505Z,100.00
2022-09-15T04:52:26.476Z,100.00
2022-09-15T04:54:36.861Z,100.00
2022-09-15T04:56:47.406Z,99.74
2022-09-15T04:59:02.409Z,99.77
2022-09-15T05:01:13.447Z,100.00
2022-09-15T05:03:23.580Z,100.00
2022-09-15T05:05:41.337Z,99.89
2022-09-15T05:07:51.275Z,99.53
2022-09-15T05:10:15.649Z,99.70
2022-09-15T05:12:23.482Z,99.74
2022-09-15T05:14:31.556Z,99.47
2022-09-15T05:16:40.202Z,99.31
2022-09-15T05:18:53.254Z,99.79
2022-09-15T05:21:08.536Z,100.00
2022-09-15T05:23:18.929Z,99.91
2022-09-15T05:25:26.677Z,99.90
2022-09-15T05:27:36.432Z,99.61
2022-09-15T05:29:44.247Z,99.68
2022-09-15T05:31:52.270Z,100.00
2022-09-15T05:34:02.419Z,100.00
2022-09-15T05:36:15.283Z,100.00
2022-09-15T05:38:24.185Z,100.00
2022-09-15T05:40:32.359Z,100.00
2022-09-15T05:42:40.519Z,99.85
2022-09-15T05:44:49.287Z,99.83
2022-09-15T05:46:59.754Z,99.98
2022-09-15T05:49:08.896Z,99.47
2022-09-15T05:51:19.342Z,100.00
2022-09-15T05:53:28.377Z,100.00
2022-09-15T05:55:40.964Z,100.00
2022-09-15T05:57:50.996Z,100.00
2022-09-15T06:00:00.325Z,100.00
2022-09-15T06:02:08.529Z,99.99
2022-09-15T06:04:18.592Z,99.93
2022-09-15T06:06:29.641Z,100.00
2022-09-15T06:08:43.914Z,100.00
2022-09-15T06:10:52.312Z,100.00
2022-09-15T06:13:00.301Z,100.00
2022-09-15T06:15:10.359Z,100.00
2022-09-15T06:17:18.353Z,100.00
2022-09-15T06:19:26.453Z,100.00
2022-09-15T06:21:37.243Z,100.00
2022-09-15T06:23:50.553Z,99.64
2022-09-15T06:25:59.802Z,99.77
2022-09-15T06:28:07.680Z,100.00
2022-09-15T06:30:19.239Z,99.53
2022-09-15T06:32:27.325Z,99.61
2022-09-15T06:34:35.767Z,99.69
2022-09-15T06:36:48.886Z,99.89
2022-09-15T06:38:58.540Z,100.00
2022-09-15T06:41:06.334Z,100.00
2022-09-15T06:43:17.262Z,100.00
2022-09-15T06:45:25.515Z,100.00
2022-09-15T06:47:34.241Z,100.00
2022-09-15T06:49:42.126Z,100.00
2022-09-15T06:51:52.790Z,100.00
2022-09-15T06:54:00.689Z,100.00
2022-09-15T06:56:10.368Z,100.00
2022-09-15T06:58:18.523Z,100.00
2022-09-15T07:00:26.596Z,100.00
2022-09-15T07:02:34.839Z,100.00
2022-09-15T07:04:45.410Z,100.00
2022-09-15T07:06:55.955Z,100.00
2022-09-15T07:09:04.984Z,100.00
2022-09-15T07:11:15.075Z,100.00
2022-09-15T07:13:22.883Z,100.00
2022-09-15T07:15:31.705Z,100.00
2022-09-15T07:17:39.550Z,100.00
2022-09-15T07:19:47.680Z,100.00
2022-09-15T07:21:59.258Z,100.00
2022-09-15T07:24:07.874Z,100.00
2022-09-15T07:26:17.446Z,100.00
2022-09-15T07:28:26.845Z,100.00
2022-09-15T07:30:35.145Z,100.00
2022-09-15T07:32:46.161Z,100.00
2022-09-15T07:34:58.258Z,100.00
2022-09-15T07:37:10.176Z,100.00
2022-09-15T07:39:17.943Z,100.00
2022-09-15T07:41:28.667Z,100.00
2022-09-15T07:43:38.894Z,100.00
2022-09-15T07:45:46.913Z,100.00
2022-09-15T07:47:56.227Z,100.00
2022-09-15T07:50:06.578Z,100.00
2022-09-15T07:52:17.152Z,100.00
2022-09-15T07:54:25.385Z,100.00
2022-09-15T07:56:33.498Z,100.00
2022-09-15T07:58:41.289Z,100.00
2022-09-15T08:00:52.007Z,100.00
2022-09-15T08:03:01.282Z,100.00
2022-09-15T08:05:17.737Z,100.00
2022-09-15T08:07:30.751Z,100.00
2022-09-15T08:09:40.353Z,100.00
2022-09-15T08:11:49.020Z,100.00
2022-09-15T08:13:56.927Z,100.00
2022-09-15T08:16:09.349Z,100.00
2022-09-15T08:18:17.232Z,100.00
2022-09-15T08:20:25.014Z,100.00
2022-09-15T08:22:36.208Z,100.00
2022-09-15T08:24:46.394Z,100.00
2022-09-15T08:26:54.559Z,100.00
2022-09-15T08:29:02.377Z,100.00
2022-09-15T08:31:12.178Z,100.00
2022-09-15T08:33:19.926Z,100.00
2022-09-15T08:35:28.384Z,100.00
2022-09-15T08:37:38.774Z,100.00
2022-09-15T08:39:47.338Z,100.00
2022-09-15T08:41:57.424Z,100.00
2022-09-15T08:44:16.116Z,100.00
2022-09-15T08:46:30.389Z,100.00
2022-09-15T08:48:44.263Z,100.00
2022-09-15T08:50:55.068Z,100.00
2022-09-15T08:53:16.241Z,100.00
2022-09-15T08:55:35.130Z,100.00
2022-09-15T08:57:43.544Z,100.00
2022-09-15T08:59:51.300Z,100.00
2022-09-15T09:02:23.540Z,100.00
2022-09-15T09:04:47.292Z,100.00
2022-09-15T09:07:09.040Z,100.00
2022-09-15T09:09:34.491Z,100.00
2022-09-15T09:11:59.728Z,100.00
2022-09-15T09:14:17.459Z,100.00
2022-09-15T09:16:42.521Z,100.00
2022-09-15T09:19:08.138Z,100.00
2022-09-15T09:21:26.768Z,100.00
2022-09-15T09:23:37.050Z,100.00
2022-09-15T09:25:49.835Z,100.00
2022-09-15T09:27:59.486Z,100.00
2022-09-15T09:30:17.493Z,100.00
2022-09-15T09:32:28.022Z,100.00
2022-09-15T09:34:41.062Z,100.00
2022-09-15T09:36:49.238Z,100.00
2022-09-15T09:38:59.139Z,100.00
2022-09-15T09:41:16.438Z,100.00
2022-09-15T09:43:27.913Z,100.00
2022-09-15T09:45:35.892Z,100.00
2022-09-15T09:47:46.404Z,98.91
2022-09-15T09:49:54.409Z,96.36
2022-09-15T09:52:05.549Z,94.99
2022-09-15T09:54:20.662Z,94.84
2022-09-15T09:56:31.155Z,95.53
2022-09-15T09:58:39.199Z,95.36
2022-09-15T10:00:47.098Z,97.67
2022-09-15T10:02:56.527Z,98.37
2022-09-15T10:05:21.207Z,98.28
2022-09-15T10:07:30.553Z,98.42
2022-09-15T10:09:40.515Z,99.20
2022-09-15T10:11:53.832Z,98.42
2022-09-15T10:14:01.644Z,99.29
2022-09-15T10:16:10.131Z,98.87
2022-09-15T10:18:31.236Z,97.23
2022-09-15T10:20:49.160Z,96.40
2022-09-15T10:23:07.801Z,95.71
2022-09-15T10:25:57.653Z,96.45
2022-09-15T10:28:16.788Z,98.68
2022-09-15T10:30:27.724Z,99.95
2022-09-15T10:32:35.589Z,100.00
2022-09-15T10:34:44.278Z,100.00
2022-09-15T10:36:55.109Z,100.00
2022-09-15T10:39:15.919Z,100.00
2022-09-15T10:41:29.483Z,100.00
2022-09-15T10:43:51.970Z,100.00
2022-09-15T10:46:07.180Z,100.00
2022-09-15T10:48:29.493Z,100.00
2022-09-15T10:50:50.310Z,100.00
2022-09-15T10:53:13.647Z,100.00
2022-09-15T10:55:51.735Z,100.00
2022-09-15T10:58:16.029Z,100.00
2022-09-15T11:00:28.044Z,100.00
2022-09-15T11:02:58.077Z,100.00
2022-09-15T11:05:27.575Z,100.00
2022-09-15T11:07:44.932Z,100.00
2022-09-15T11:09:57.916Z,100.00
2022-09-15T11:12:20.206Z,100.00
2022-09-15T11:14:42.011Z,100.00
2022-09-15T11:17:05.960Z,100.00
2022-09-15T11:19:29.629Z,100.00
2022-09-15T11:21:40.242Z,100.00
2022-09-15T11:23:54.461Z,100.00
2022-09-15T11:26:08.034Z,100.00
2022-09-15T11:28:19.611Z,100.00
2022-09-15T11:30:32.207Z,100.00
2022-09-15T11:32:52.911Z,100.00
2022-09-15T11:35:19.248Z,100.00
2022-09-15T11:37:32.520Z,100.00
2022-09-15T11:39:45.312Z,100.00
2022-09-15T11:41:58.088Z,100.00
2022-09-15T11:44:27.663Z,100.00
2022-09-15T11:46:47.053Z,100.00
2022-09-15T11:49:03.952Z,100.00
2022-09-15T11:51:14.856Z,100.00
2022-09-15T11:53:32.009Z,100.00
2022-09-15T11:55:45.695Z,100.00
2022-09-15T11:58:01.236Z,100.00
2022-09-15T12:00:14.972Z,100.00
2022-09-15T12:02:31.569Z,100.00
2022-09-15T12:04:49.865Z,100.00
2022-09-15T12:07:02.909Z,100.00
2022-09-15T12:09:16.246Z,100.00
2022-09-15T12:11:29.522Z,100.00
2022-09-15T12:13:38.974Z,100.00
2022-09-15T12:15:47.328Z,100.00
2022-09-15T12:18:06.418Z,100.00
2022-09-15T12:20:34.133Z,100.00
2022-09-15T12:22:49.994Z,100.00
2022-09-15T12:25:04.627Z,100.00
2022-09-15T12:27:20.112Z,100.00
2022-09-15T12:29:42.235Z,100.00
2022-09-15T12:31:50.878Z,98.93
2022-09-15T12:34:26.299Z,98.43
2022-09-15T12:37:06.678Z,98.27
2022-09-15T12:39:34.161Z,97.99
2022-09-15T12:41:50.018Z,96.99
2022-09-15T12:44:01.286Z,94.33
2022-09-15T12:46:21.741Z,95.74
2022-09-15T12:48:34.068Z,95.17
2022-09-15T12:50:45.704Z,94.11
2022-09-15T12:53:00.908Z,92.75
2022-09-15T12:55:09.250Z,92.49
2022-09-15T12:57:24.571Z,92.94
2022-09-15T12:59:32.997Z,94.88
2022-09-15T13:01:52.928Z,94.37
2022-09-15T13:04:26.560Z,96.67
2022-09-15T13:06:36.135Z,98.12
2022-09-15T13:08:55.057Z,98.84
2022-09-15T13:11:05.912Z,99.00
2022-09-15T13:13:38.494Z,98.16
2022-09-15T13:15:49.833Z,94.74
2022-09-15T13:17:58.869Z,94.93
2022-09-15T13:20:18.065Z,94.35
2022-09-15T13:22:31.456Z,94.46
2022-09-15T13:24:49.067Z,92.63
2022-09-15T13:26:59.042Z,89.90
2022-09-15T13:29:08.891Z,90.29
2022-09-15T13:31:34.536Z,91.21
2022-09-15T13:40:04.986Z,84.94
2022-09-15T13:42:31.796Z,83.16
2022-09-15T13:45:07.408Z,83.98
2022-09-15T13:47:41.637Z,82.10
2022-09-15T13:49:58.546Z,81.57
2022-09-15T13:52:16.457Z,80.98
2022-09-15T13:54:27.527Z,79.67
2022-09-15T13:56:42.180Z,79.61
2022-09-15T13:58:57.543Z,78.75
2022-09-15T14:01:11.657Z,81.26
2022-09-15T14:03:25.775Z,79.55
2022-09-15T14:05:37.073Z,81.27
2022-09-15T14:07:47.729Z,80.53
2022-09-15T14:09:58.078Z,80.92
2022-09-15T14:12:15.111Z,80.39
2022-09-15T14:14:45.956Z,81.35
2022-09-15T14:16:53.908Z,81.63
2022-09-15T14:19:02.312Z,80.25
2022-09-15T14:21:20.399Z,80.84
2022-09-15T14:23:28.065Z,80.56
2022-09-15T14:25:36.586Z,80.64
2022-09-15T14:27:51.149Z,80.34
2022-09-15T14:30:00.433Z,80.28
2022-09-15T14:32:14.350Z,77.16
2022-09-15T14:34:28.916Z,77.68
2022-09-15T14:36:38.065Z,75.18
2022-09-15T14:38:48.431Z,78.91
2022-09-15T14:40:59.737Z,79.84
2022-09-15T14:43:35.639Z,78.83
2022-09-15T14:45:57.825Z,79.88
2022-09-15T14:48:11.964Z,80.88
2022-09-15T14:50:22.545Z,80.24
2022-09-15T14:52:40.794Z,80.92
2022-09-15T14:54:49.117Z,80.88
2022-09-15T14:57:02.206Z,79.17
2022-09-15T14:59:20.513Z,81.39
2022-09-15T15:01:36.576Z,80.73
2022-09-15T15:03:52.381Z,81.07
2022-09-15T15:06:25.415Z,81.86
2022-09-15T15:08:38.727Z,81.04
2022-09-15T15:10:46.743Z,84.15
2022-09-15T15:12:59.007Z,84.19
2022-09-15T15:15:14.687Z,84.01
2022-09-15T15:17:35.842Z,82.57
2022-09-15T15:19:45.843Z,84.23
2022-09-15T15:21:53.661Z,82.24
2022-09-15T15:24:02.019Z,82.06
2022-09-15T15:26:29.979Z,83.68
2022-09-15T15:28:40.127Z,84.36
2022-09-15T15:30:50.862Z,84.07
2022-09-15T15:33:00.806Z,81.80
2022-09-15T15:35:18.569Z,80.51
2022-09-15T15:37:31.551Z,80.62
2022-09-15T15:39:39.458Z,82.33
2022-09-15T15:44:30.771Z,81.52
2022-09-15T15:46:53.916Z,80.97
2022-09-15T15:49:03.790Z,81.41
2022-09-15T15:51:13.801Z,81.74
2022-09-15T15:53:21.830Z,79.83
2022-09-15T15:55:39.625Z,80.85
2022-09-15T15:57:50.019Z,81.39
2022-09-15T16:00:00.698Z,81.16
2022-09-15T16:02:17.006Z,80.08
2022-09-15T16:04:25.501Z,78.65
2022-09-15T16:06:33.651Z,79.63
2022-09-15T16:08:44.902Z,78.28
2022-09-15T16:10:54.165Z,77.75
2022-09-15T16:13:02.363Z,78.01
2022-09-15T16:15:15.315Z,76.70
2022-09-15T16:17:25.839Z,76.40
2022-09-15T16:19:33.771Z,76.69
2022-09-15T16:21:45.498Z,76.89
2022-09-15T16:23:53.275Z,77.54
2022-09-15T16:26:04.387Z,78.43
2022-09-15T16:28:12.963Z,80.15
2022-09-15T16:30:20.818Z,80.54
2022-09-15T16:32:32.614Z,81.95
2022-09-15T16:34:40.379Z,81.42
2022-09-15T16:36:49.916Z,82.51
2022-09-15T16:38:57.657Z,82.65
2022-09-15T16:41:06.525Z,83.23
2022-09-15T16:43:19.367Z,84.22
2022-09-15T16:45:35.274Z,85.64
2022-09-15T16:47:48.827Z,85.55
2022-09-15T16:49:56.614Z,86.10
2022-09-15T16:52:05.363Z,87.36
2022-09-15T16:54:17.893Z,87.58
2022-09-15T16:56:28.244Z,88.23
2022-09-15T16:58:36.710Z,89.35
2022-09-15T17:00:46.130Z,88.92
2022-09-15T17:02:57.034Z,89.84
2022-09-15T17:05:04.935Z,90.74
2022-09-15T17:07:12.711Z,91.07
2022-09-15T17:09:20.711Z,91.09
2022-09-15T17:11:29.218Z,92.10
2022-09-15T17:13:37.714Z,91.04
2022-09-15T17:15:47.321Z,91.32
2022-09-15T17:17:58.694Z,91.49
2022-09-15T17:20:07.223Z,92.08
2022-09-15T17:22:15.244Z,91.56
2022-09-15T17:24:24.105Z,91.60
2022-09-15T17:26:32.083Z,91.96
2022-09-15T17:28:41.207Z,92.16
2022-09-15T17:30:49.447Z,92.48
2022-09-15T17:33:07.856Z,92.63
2022-09-15T17:35:20.065Z,92.95
2022-09-15T17:37:28.023Z,92.91
2022-09-15T17:39:36.470Z,93.53
2022-09-15T17:42:06.506Z,94.03
2022-09-15T17:44:14.413Z,93.37
2022-09-15T17:46:22.556Z,92.08
2022-09-15T17:48:33.174Z,91.03
2022-09-15T17:50:42.627Z,90.74
2022-09-15T17:52:51.747Z,91.15
2022-09-15T17:54:59.538Z,90.92
2022-09-15T17:57:07.603Z,90.73
2022-09-15T17:59:17.121Z,90.12
2022-09-15T18:01:24.948Z,91.13
2022-09-15T18:03:36.563Z,90.83
2022-09-15T18:05:45.894Z,89.94
2022-09-15T18:07:55.950Z,89.70
2022-09-15T18:10:04.891Z,89.62
2022-09-15T18:12:15.590Z,88.97
2022-09-15T18:14:24.971Z,89.13
2022-09-15T18:16:34.463Z,89.55
2022-09-15T18:18:46.012Z,89.79
2022-09-15T18:20:55.012Z,89.20
2022-09-15T18:23:03.689Z,89.44
2022-09-15T18:25:18.923Z,87.62
2022-09-15T18:27:26.902Z,87.93
2022-09-15T18:29:35.744Z,88.50
2022-09-15T18:31:44.951Z,88.46
2022-09-15T18:33:55.389Z,90.40
2022-09-15T18:36:03.289Z,90.60
2022-09-15T18:38:11.615Z,90.07
2022-09-15T18:40:22.083Z,92.83
2022-09-15T18:42:32.007Z,91.98
2022-09-15T18:44:40.123Z,92.11
2022-09-15T18:46:47.946Z,88.97
2022-09-15T18:48:59.288Z,90.03
2022-09-15T18:51:19.663Z,92.83
2022-09-15T18:53:32.334Z,92.19
2022-09-15T18:55:42.714Z,90.58
2022-09-15T18:57:51.167Z,92.80
2022-09-15T18:59:58.949Z,92.71
2022-09-15T19:02:06.933Z,90.86
2022-09-15T19:04:18.515Z,90.33
2022-09-15T19:06:26.442Z,92.29
2022-09-15T19:08:34.639Z,91.55
2022-09-15T19:10:44.218Z,91.99
2022-09-15T19:12:54.202Z,92.18
2022-09-15T19:15:01.987Z,93.57
2022-09-15T19:17:09.734Z,93.05
2022-09-15T19:19:20.521Z,92.80
2022-09-15T19:21:28.542Z,95.43
2022-09-15T19:23:36.409Z,95.24
2022-09-15T19:25:44.457Z,93.24
2022-09-15T19:27:54.465Z,94.55
2022-09-15T19:30:02.829Z,93.97
2022-09-15T19:32:13.132Z,93.91
2022-09-15T19:34:23.762Z,93.86
2022-09-15T19:36:31.694Z,94.18
2022-09-15T19:38:39.638Z,94.61
2022-09-15T19:40:47.400Z,94.76
2022-09-15T19:42:55.288Z,96.00
2022-09-15T19:45:03.208Z,95.37
2022-09-15T19:47:11.094Z,96.09
2022-09-15T19:49:19.310Z,96.74
2022-09-15T19:51:31.481Z,97.42
2022-09-15T19:53:40.379Z,96.82
2022-09-15T19:55:52.240Z,96.91
2022-09-15T19:57:59.999Z,97.52
2022-09-15T20:00:09.845Z,98.34
2022-09-15T20:02:17.681Z,99.06
2022-09-15T20:04:25.531Z,99.82
2022-09-15T20:06:36.112Z,100.00
2022-09-15T20:08:45.910Z,100.00
2022-09-15T20:10:54.321Z,100.00
2022-09-15T20:13:01.978Z,100.00
2022-09-15T20:15:12.648Z,100.00
2022-09-15T20:17:21.852Z,100.00
2022-09-15T20:19:29.949Z,100.00
2022-09-15T20:21:50.706Z,100.00
2022-09-15T20:23:59.594Z,100.00
2022-09-15T20:26:11.913Z,100.00
2022-09-15T20:28:20.055Z,100.00
2022-09-15T20:30:27.838Z,100.00
2022-09-15T20:32:36.800Z,100.00
2022-09-15T20:34:46.970Z,100.00
2022-09-15T20:36:58.993Z,100.00
2022-09-15T20:39:08.911Z,100.00
2022-09-15T20:41:18.455Z,100.00
2022-09-15T20:43:27.009Z,100.00
2022-09-15T20:45:37.180Z,100.00
2022-09-15T20:47:45.476Z,100.00
2022-09-15T20:49:53.213Z,100.00
2022-09-15T20:52:03.834Z,100.00
2022-09-15T20:54:12.656Z,100.00
2022-09-15T20:56:24.930Z,100.00
2022-09-15T20:58:35.899Z,100.00
2022-09-15T21:00:43.725Z,100.00
2022-09-15T21:02:54.670Z,100.00
2022-09-15T21:05:02.772Z,100.00
2022-09-15T21:07:13.326Z,100.00
2022-09-15T21:09:21.476Z,100.00
2022-09-15T21:11:31.096Z,100.00
2022-09-15T21:13:40.173Z,100.00
2022-09-15T21:15:57.901Z,100.00
2022-09-15T21:18:05.666Z,100.00
2022-09-15T21:20:14.138Z,100.00
2022-09-15T21:22:24.535Z,100.00
2022-09-15T21:24:32.233Z,100.00
2022-09-15T21:27:03.809Z,100.00
2022-09-15T21:29:12.533Z,100.00
2022-09-15T21:31:21.772Z,100.00
2022-09-15T21:33:29.992Z,100.00
2022-09-15T21:35:37.761Z,100.00
2022-09-15T21:37:48.587Z,100.00
2022-09-15T21:39:57.106Z,100.00
2022-09-15T21:42:05.357Z,100.00
2022-09-15T21:44:14.540Z,100.00
2022-09-15T21:46:23.356Z,100.00
2022-09-15T21:48:32.738Z,100.00
2022-09-15T21:50:40.961Z,100.00
2022-09-15T21:52:51.377Z,100.00
2022-09-15T21:54:59.487Z,100.00
2022-09-15T21:57:11.900Z,100.00
2022-09-15T21:59:20.125Z,100.00
2022-09-15T22:01:30.251Z,100.00
2022-09-15T22:03:42.252Z,100.00
2022-09-15T22:05:51.877Z,100.00
2022-09-15T22:08:05.004Z,100.00
2022-09-15T22:10:24.117Z,100.00
2022-09-15T22:12:32.609Z,100.00
2022-09-15T22:14:40.786Z,100.00
2022-09-15T22:16:49.055Z,100.00
2022-09-15T22:19:00.495Z,100.00
2022-09-15T22:21:11.559Z,100.00
2022-09-15T22:23:22.582Z,100.00
2022-09-15T22:25:31.633Z,100.00
2022-09-15T22:27:40.033Z,100.00
2022-09-15T22:29:48.122Z,100.00
2022-09-15T22:31:58.661Z,100.00
2022-09-15T22:34:07.325Z,100.00
2022-09-15T22:36:16.290Z,100.00
2022-09-15T22:38:28.549Z,100.00
2022-09-15T22:40:40.499Z,100.00
2022-09-15T22:42:48.981Z,100.00
2022-09-15T22:44:57.110Z,100.00
2022-09-15T22:47:07.921Z,100.00
2022-09-15T22:49:16.054Z,100.00
2022-09-15T22:51:24.308Z,100.00
2022-09-15T22:53:37.345Z,100.00
2022-09-15T22:55:46.712Z,100.00
2022-09-15T22:57:55.270Z,100.00
2022-09-15T23:00:03.371Z,100.00
2022-09-15T23:02:11.944Z,100.00
2022-09-15T23:04:28.184Z,100.00
2022-09-15T23:06:36.996Z,100.00
2022-09-15T23:08:48.762Z,100.00
2022-09-15T23:11:03.189Z,100.00
2022-09-15T23:13:11.990Z,100.00
2022-09-15T23:15:20.025Z,100.00
2022-09-15T23:17:28.015Z,100.00
2022-09-15T23:19:35.783Z,100.00
2022-09-15T23:21:43.755Z,100.00
2022-09-15T23:23:57.006Z,100.00
2022-09-15T23:26:05.419Z,100.00
2022-09-15T23:28:13.240Z,100.00
2022-09-15T23:30:21.301Z,100.00
2022-09-15T23:32:31.945Z,100.00
2022-09-15T23:34:39.798Z,100.00
2022-09-15T23:36:47.632Z,100.00
2022-09-15T23:38:58.423Z,100.00
2022-09-15T23:41:06.658Z,100.00
2022-09-15T23:43:16.586Z,100.00
2022-09-15T23:45:24.903Z,100.00
2022-09-15T23:47:35.042Z,100.00
2022-09-15T23:49:42.945Z,100.00
2022-09-15T23:51:51.352Z,100.00
2022-09-15T23:54:02.299Z,100.00
2022-09-15T23:56:10.414Z,100.00
2022-09-15T23:58:18.983Z,100.00
